Saugatuck, Connecticut
Current Conditions -  °F | °C
As of 10:52 AM on Tuesday 21 Oct 2014 (Local Time) from KBDR Reporting Station
Scattered Clouds Scattered Clouds  
Wind Chill: 62°   Ceiling: Unl
Heat Index: 62°   Visibility: 10mi
Dew Point: 54°   Wind: 12mph
Humidity: 75%   Direction: 70°ENE
Pressure: 29.9"   Gusts: NA
Location:  41.1454°N, 73.3462°W
Report Text: KBDR 211452Z 07010KT 10SM SCT080 17/12 A2990 RMK AO2 SLP126 T01670122 58007
Loading
Personal Weather Stations






























Interactive Weather Map New forecast layout! Learn more

10-Day Weather Forecast

Advertisements
Track Severe Weather on mobile